Aérodrome :
LOGIN :

S'inscrire | Disclaimer

   EN    FR    IT 

 










Légende :    VFR   VFR Marginal   IFR   IFR Intensif   IFR Très Intensif
Visi : 
Plafond : 
>= 8 km
>= 3000ft
5 à 8 km
1000 à 3000 ft
1500m à 5 km
500 à 1000 ft
800 à 1500m
200 à 500 ft
< 800m
< 200 ft
Symboles :   Orages  Brouillard  Fortes neiges  Fortes précipitations  Vent > 20 kt
SIGMETs :   Divers  Orages  Givrage  Turbulence  Onde Orograph.  Cendres Volcan.






- Altitude de l'aérodrome : 1516 ft
- Code IATA : AGB


EDMA - Augsburg

DERNIER METAR :
  • 151320Z 12006KT CAVOK 29/15 Q1013

METARs EXPIRÉS :
  • 151250Z 10006KT 020V130 CAVOK 28/15 Q1013
  • 151220Z 13005KT 080V180 CAVOK 29/15 Q1013
  • 151150Z VRB03KT CAVOK 28/15 Q1014
  • 151120Z 08004KT 350V160 CAVOK 28/16 Q1014
  • 151050Z 08004KT 030V120 CAVOK 26/15 Q1014
  • 151020Z 10004KT CAVOK 26/14 Q1014
  • 150950Z 10004KT 070V130 CAVOK 26/14 Q1014
  • 150920Z 15004KT 110V200 CAVOK 26/14 Q1015
  • 150850Z VRB01KT CAVOK 26/15 Q1015

TAF TAF EDMA
Valide du 15 à 12h jusqu'au 15 à 21h UTC


151100Z 1512/1521 10006KT CAVOK
TEMPO 1518/1521 VRB02KT



MET'MAP, la Météo Aéronautique d'un coup d'oeil ! - Copyright ORBIFLY Décembre 2007 - Disclaimer

ORBIFLY MET'MAP TEAM :

Programmation & Développement : Alexandra Zaïnal
Sur une idée originale de : Baudouin d'Aumeries
Soutien technique & logistique : Manuel Goepfert
Assistance : Marc-Olivier Méhu




SOURCES & CREDITS :

   NOAA